嘉手納 の空港の天気 - METARとTAF

嘉手納基地 ( RODN / DNA ) - 沖縄県沖縄市
飛行場実況気象(Metar)
観測時間06/02 06:56 JST (06/01 21:56 UTC)
風向・風速南西 5m/s
視程10km以上
天気現象
少しの雲 雲底高度 790m
気温26.4℃
湿度93%
気圧1011.3hPa
METARRODN 012156Z AUTO 23010KT 10SM FEW026 26/25 A2985 RMK AO2 SLP113 T02640251 $
過去の天気等 Google飛行場航空写真 Wunderground天気予報

過去48時間のMETAR

飛行場予報(TAF)
発表時間: 6/02 05:04 JST (6/01 20:04 UTC)
予報対象時間: 2日5時 JST ~ 3日7時 JST
風向・風速南 3m/s
視程10km以上
天気現象周辺でしゅう雨
全天の4割程度の雲 雲底高度 370m
全天を覆う雲 雲底高度 1370m
2日8時 JST ~ 2日13時 JST に一時的に
視程3200m
天気現象しゅう雨 周辺で雷
全天の8割程度の積乱雲 雲底高度 210m
2日12時 JST ~ 2日13時 JST に徐々に
風向・風速南南西 6m/s
視程10km以上
天気現象運行に影響にある天気現象が終了
全天の4割程度の雲 雲底高度 910m
TAF AMD RODN 012004Z 0120/0222 17006KT 9999 VCSH SCT012 OVC045 QNH2984INS
TEMPO 0123/0204 3200 SHRA VCTS BKN007CB
BECMG 0203/0204 21012KT 9999 NSW SCT030 QNH2986INS TX29/0203Z TN25/0120Z
日本の空港のMETAR・TAFへのリンク

RJTT 東京国際空港
RJAA 新東京国際空港
RJBB 関西国際空港
RJOO 大阪空港
RJGG 中部国際空港
RJCC 新千歳空港
RJFF 福岡空港
ROAH 那覇空港


RJEC 旭川空港
RJCH 函館空港
RJCK 釧路空港
RJCM 女満別空港
RJCB 帯広空港
RJSA 青森空港
RJSS 仙台空港
RJSK 秋田空港
RJSF 福島空港
RJAH 茨城空港
RJSN 新潟空港
RJNT 富山空港
RJNK 小松飛行場
RJNS 静岡空港
RJOH 美保飛行場
RJOC 出雲空港
RJOB 岡山空港
RJOA 広島空港
RJOI 岩国飛行場
RJOT 高松空港
RJOM 松山空港
RJOK 高知空港
RJFR 北九州空港
RJFT 熊本空港
RJFU 長崎空港
RJFS 佐賀空港
RJFO 大分空港
RJFM 宮崎空港
RJFK 鹿児島空港
ROIG 石垣島空港
RJTY 横田飛行場
ROTM 普天間飛行場
RODN 嘉手納飛行場